createdAt,value
2018-01-18T00:00:35.923Z,99559.17
2018-01-18T00:03:04.304Z,99559.45
2018-01-18T00:05:32.668Z,99546.08
2018-01-18T00:08:01.045Z,99554.25
2018-01-18T00:10:29.437Z,99554.16
2018-01-18T00:12:57.816Z,99550.28
2018-01-18T00:15:26.211Z,99551.55
2018-01-18T00:17:54.675Z,99560.66
2018-01-18T00:20:23.042Z,99571.51
2018-01-18T00:22:52.199Z,99561.52
2018-01-18T00:25:20.558Z,99561.34
2018-01-18T00:27:49.326Z,99566.73
2018-01-18T00:30:17.686Z,99578.00
2018-01-18T00:32:46.035Z,99568.96
2018-01-18T00:35:14.404Z,99574.23
2018-01-18T00:37:42.751Z,99575.91
2018-01-18T00:40:11.521Z,99569.45
2018-01-18T00:42:39.890Z,99576.38
2018-01-18T00:45:08.253Z,99569.92
2018-01-18T00:47:36.608Z,99582.33
2018-01-18T00:50:04.966Z,99576.22
2018-01-18T00:52:33.349Z,99576.42
2018-01-18T00:55:01.697Z,99572.22
2018-01-18T00:57:30.056Z,99577.89
2018-01-18T00:59:58.437Z,99568.32
2018-01-18T01:02:27.691Z,99569.16
2018-01-18T01:04:56.070Z,99570.44
2018-01-18T01:07:24.440Z,99564.73
2018-01-18T01:09:52.805Z,99564.28
2018-01-18T01:12:21.580Z,99572.96
2018-01-18T01:14:49.954Z,99576.70
2018-01-18T01:17:18.318Z,99575.52
2018-01-18T01:19:46.704Z,99580.81
2018-01-18T01:22:15.118Z,99576.83
2018-01-18T01:24:43.485Z,99576.40
2018-01-18T01:27:12.246Z,99574.62
2018-01-18T01:29:40.619Z,99591.19
2018-01-18T01:32:09.814Z,99580.70
2018-01-18T01:34:38.194Z,99580.83
2018-01-18T01:37:06.561Z,99573.49
2018-01-18T01:39:34.924Z,99583.88
2018-01-18T01:42:03.278Z,99582.14
2018-01-18T01:44:31.659Z,99577.80
2018-01-18T01:47:00.031Z,99568.75
2018-01-18T01:49:28.400Z,99562.58
2018-01-18T01:51:57.171Z,99566.59
2018-01-18T01:54:25.534Z,99565.74
2018-01-18T01:56:53.931Z,99573.50
2018-01-18T01:59:22.293Z,99567.88
2018-01-18T02:01:50.644Z,99560.09
2018-01-18T02:04:19.149Z,99563.55
2018-01-18T02:06:47.537Z,99563.99
2018-01-18T02:09:16.027Z,99558.35
2018-01-18T02:11:44.392Z,99559.14
2018-01-18T02:14:12.748Z,99556.16
2018-01-18T02:16:41.151Z,99565.27
2018-01-18T02:19:09.506Z,99568.30
2018-01-18T02:21:37.899Z,99553.55
2018-01-18T02:24:26.351Z,99549.20
2018-01-18T02:26:54.724Z,99559.87
2018-01-18T02:29:23.083Z,99572.87
2018-01-18T02:31:51.471Z,99570.38
2018-01-18T02:34:19.861Z,99573.50
2018-01-18T02:36:48.202Z,99572.20
2018-01-18T02:39:16.915Z,99579.95
2018-01-18T02:41:45.274Z,99573.52
2018-01-18T02:44:13.653Z,99569.46
2018-01-18T02:46:42.079Z,99567.44
2018-01-18T02:49:10.453Z,99571.28
2018-01-18T02:51:38.891Z,99566.15
2018-01-18T02:54:07.313Z,99563.55
2018-01-18T02:56:35.666Z,99563.98
2018-01-18T02:59:04.174Z,99559.66
2018-01-18T03:01:32.541Z,99556.19
2018-01-18T03:04:00.929Z,99555.77
2018-01-18T03:06:29.279Z,99551.87
2018-01-18T03:08:57.641Z,99545.34
2018-01-18T03:11:26.007Z,99532.75
2018-01-18T03:13:54.381Z,99538.41
2018-01-18T03:16:22.751Z,99533.63
2018-01-18T03:18:51.529Z,99533.20
2018-01-18T03:21:19.880Z,99529.75
2018-01-18T03:23:48.269Z,99533.63
2018-01-18T03:26:16.628Z,99526.72
2018-01-18T03:28:45.024Z,99528.45
2018-01-18T03:31:13.376Z,99525.83
2018-01-18T03:33:41.739Z,99518.44
2018-01-18T03:36:10.172Z,99526.27
2018-01-18T03:38:38.519Z,99517.59
2018-01-18T03:41:06.913Z,99521.06
2018-01-18T03:43:35.268Z,99514.99
2018-01-18T03:46:03.679Z,99510.64
2018-01-18T03:48:32.039Z,99515.00
2018-01-18T03:51:00.416Z,99509.36
2018-01-18T03:53:28.806Z,99503.25
2018-01-18T03:55:57.202Z,99497.16
2018-01-18T03:58:25.564Z,99506.67
2018-01-18T04:00:53.931Z,99507.10
2018-01-18T04:03:22.290Z,99502.36
2018-01-18T04:05:50.714Z,99495.88
2018-01-18T04:08:19.079Z,99491.58
2018-01-18T04:10:47.455Z,99495.02
2018-01-18T04:13:15.821Z,99479.83
2018-01-18T04:15:44.180Z,99485.06
2018-01-18T04:18:12.604Z,99475.95
2018-01-18T04:20:40.978Z,99475.52
2018-01-18T04:23:09.353Z,99469.45
2018-01-18T04:25:37.730Z,99467.70
2018-01-18T04:28:06.096Z,99461.63
2018-01-18T04:30:34.527Z,99468.59
2018-01-18T04:33:02.860Z,99454.30
2018-01-18T04:35:31.231Z,99453.86
2018-01-18T04:37:59.623Z,99465.08
2018-01-18T04:40:27.991Z,99458.63
2018-01-18T04:42:56.399Z,99466.34
2018-01-18T04:45:24.754Z,99467.67
2018-01-18T04:47:53.138Z,99472.05
2018-01-18T04:50:21.540Z,99460.74
2018-01-18T04:52:49.898Z,99471.10
2018-01-18T04:55:18.276Z,99468.05
2018-01-18T04:57:46.642Z,99461.61
2018-01-18T05:00:15.036Z,99465.98
2018-01-18T05:02:43.423Z,99461.66
2018-01-18T05:05:11.783Z,99450.72
2018-01-18T05:07:40.181Z,99446.44
2018-01-18T05:10:08.543Z,99442.52
2018-01-18T05:12:36.924Z,99436.80
2018-01-18T05:15:05.289Z,99432.92
2018-01-18T05:17:33.689Z,99436.45
2018-01-18T05:20:02.174Z,99429.58
2018-01-18T05:22:30.548Z,99432.98
2018-01-18T05:24:58.960Z,99434.72
2018-01-18T05:27:27.741Z,99431.70
2018-01-18T05:29:56.095Z,99434.72
2018-01-18T05:32:24.479Z,99427.38
2018-01-18T05:34:52.848Z,99413.89
2018-01-18T05:37:21.204Z,99402.21
2018-01-18T05:39:49.604Z,99390.08
2018-01-18T05:42:17.976Z,99384.48
2018-01-18T05:44:46.356Z,99380.15
2018-01-18T05:47:14.724Z,99372.36
2018-01-18T05:49:43.089Z,99361.53
2018-01-18T05:52:11.462Z,99356.28
2018-01-18T05:54:39.884Z,99367.98
2018-01-18T05:57:08.354Z,99355.44
2018-01-18T05:59:36.731Z,99344.11
2018-01-18T06:02:05.124Z,99338.52
2018-01-18T06:04:33.486Z,99329.00
2018-01-18T06:07:01.871Z,99327.27
2018-01-18T06:09:30.347Z,99321.64
2018-01-18T06:11:58.798Z,99312.99
2018-01-18T06:14:27.160Z,99306.07
2018-01-18T06:16:55.592Z,99299.13
2018-01-18T06:19:23.975Z,99298.27
2018-01-18T06:21:52.432Z,99293.09
2018-01-18T06:24:20.846Z,99280.50
2018-01-18T06:26:49.203Z,99285.28
2018-01-18T06:29:18.250Z,99289.12
2018-01-18T06:31:46.994Z,99289.61
2018-01-18T06:34:15.397Z,99285.28
2018-01-18T06:36:43.855Z,99280.94
2018-01-18T06:39:12.240Z,99281.39
2018-01-18T06:41:40.621Z,99269.69
2018-01-18T06:44:09.000Z,99265.80
2018-01-18T06:46:37.389Z,99262.33
2018-01-18T06:49:06.184Z,99252.80
2018-01-18T06:51:34.948Z,99244.60
2018-01-18T06:54:03.315Z,99237.22
2018-01-18T06:56:31.714Z,99235.08
2018-01-18T06:59:00.145Z,99219.90
2018-01-18T07:01:28.512Z,99218.17
2018-01-18T07:03:56.887Z,99214.72
2018-01-18T07:06:25.656Z,99209.11
2018-01-18T07:08:54.155Z,99210.84
2018-01-18T07:11:23.014Z,99191.78
2018-01-18T07:13:51.379Z,99181.81
2018-01-18T07:16:19.743Z,99177.08
2018-01-18T07:18:48.144Z,99160.21
2018-01-18T07:21:16.508Z,99152.83
2018-01-18T07:23:44.900Z,99149.81
2018-01-18T07:26:13.260Z,99140.73
2018-01-18T07:28:41.616Z,99138.55
2018-01-18T07:31:10.028Z,99127.30
2018-01-18T07:33:38.396Z,99125.59
2018-01-18T07:36:07.095Z,99120.86
2018-01-18T07:38:35.480Z,99106.98
2018-01-18T07:41:03.851Z,99090.94
2018-01-18T07:43:32.250Z,99093.13
2018-01-18T07:46:00.729Z,99071.11
2018-01-18T07:48:29.182Z,99064.50
2018-01-18T07:50:57.560Z,99052.02
2018-01-18T07:53:25.952Z,99041.23
2018-01-18T07:55:55.170Z,99024.33
2018-01-18T07:58:23.543Z,99011.25
2018-01-18T08:00:51.965Z,99007.46
2018-01-18T08:03:25.789Z,98999.62
2018-01-18T08:05:54.176Z,98990.96
2018-01-18T08:08:23.154Z,98978.78
2018-01-18T08:10:51.533Z,98976.48
2018-01-18T08:13:19.896Z,98958.44
2018-01-18T08:15:48.248Z,98949.97
2018-01-18T08:18:16.714Z,98939.80
2018-01-18T08:20:45.064Z,98937.79
2018-01-18T08:23:13.504Z,98930.80
2018-01-18T08:25:42.368Z,98913.73
2018-01-18T08:28:10.729Z,98899.99
2018-01-18T08:30:39.100Z,98897.77
2018-01-18T08:33:07.473Z,98896.54
2018-01-18T08:35:35.845Z,98890.84
2018-01-18T08:38:04.259Z,98877.19
2018-01-18T08:40:32.632Z,98862.36
2018-01-18T08:43:01.016Z,98857.56
2018-01-18T08:45:29.390Z,98843.29
2018-01-18T08:47:57.752Z,98832.00
2018-01-18T08:50:26.128Z,98834.20
2018-01-18T08:52:54.524Z,98815.02
2018-01-18T08:55:22.909Z,98804.29
2018-01-18T08:57:51.385Z,98790.27
2018-01-18T09:00:19.748Z,98786.65
2018-01-18T09:02:48.127Z,98791.33
2018-01-18T09:05:16.500Z,98766.43
2018-01-18T09:08:06.133Z,98762.23
2018-01-18T09:10:34.895Z,98768.02
2018-01-18T09:13:03.300Z,98747.20
2018-01-18T09:15:32.061Z,98732.71
2018-01-18T09:18:00.415Z,98719.58
2018-01-18T09:20:28.775Z,98710.67
2018-01-18T09:22:57.140Z,98688.91
2018-01-18T09:25:25.520Z,98669.98
2018-01-18T09:27:53.868Z,98667.34
2018-01-18T09:30:22.629Z,98638.83
2018-01-18T09:32:51.040Z,98623.72
2018-01-18T09:35:19.394Z,98594.18
2018-01-18T09:37:47.890Z,98581.11
2018-01-18T09:40:16.639Z,98576.69
2018-01-18T09:42:44.995Z,98567.94
2018-01-18T09:45:13.417Z,98555.69
2018-01-18T09:47:41.764Z,98548.95
2018-01-18T09:50:10.168Z,98538.37
2018-01-18T09:52:38.646Z,98527.72
2018-01-18T09:55:07.008Z,98533.52
2018-01-18T09:57:35.444Z,98517.13
2018-01-18T10:00:04.208Z,98491.33
2018-01-18T10:02:32.592Z,98486.11
2018-01-18T10:05:00.953Z,98471.38
2018-01-18T10:07:29.348Z,98450.00
2018-01-18T10:09:57.714Z,98438.80
2018-01-18T10:12:26.084Z,98417.72
2018-01-18T10:14:54.580Z,98404.03
2018-01-18T10:17:22.944Z,98384.70
2018-01-18T10:19:51.328Z,98367.11
2018-01-18T10:22:19.708Z,98343.42
2018-01-18T10:24:48.121Z,98329.25
2018-01-18T10:27:16.893Z,98324.13
2018-01-18T10:29:45.268Z,98288.39
2018-01-18T10:32:13.632Z,98284.05
2018-01-18T10:34:42.014Z,98271.98
2018-01-18T10:37:10.383Z,98286.53
2018-01-18T10:39:38.777Z,98269.31
2018-01-18T10:42:07.144Z,98259.89
2018-01-18T10:44:35.618Z,98225.42
2018-01-18T10:47:04.394Z,98201.77
2018-01-18T10:49:32.759Z,98185.37
2018-01-18T10:52:01.131Z,98172.61
2018-01-18T10:54:29.488Z,98148.02
2018-01-18T10:56:58.352Z,98144.20
2018-01-18T10:59:26.826Z,98135.45
2018-01-18T11:01:55.197Z,98120.78
2018-01-18T11:04:23.580Z,98102.69
2018-01-18T11:06:51.943Z,98093.75
2018-01-18T11:09:20.297Z,98106.24
2018-01-18T11:11:48.663Z,98089.45
2018-01-18T11:14:17.044Z,98076.88
2018-01-18T11:16:46.368Z,98055.02
2018-01-18T11:19:14.771Z,98043.03
2018-01-18T11:21:43.300Z,98026.14
2018-01-18T11:24:11.644Z,98015.84
2018-01-18T11:26:40.009Z,97991.13
2018-01-18T11:29:08.388Z,97973.34
2018-01-18T11:31:36.768Z,97967.15
2018-01-18T11:34:05.116Z,97956.50
2018-01-18T11:36:33.495Z,97940.52
2018-01-18T11:39:01.852Z,97932.42
2018-01-18T11:41:30.223Z,97917.12
2018-01-18T11:43:59.075Z,97901.89
2018-01-18T11:46:28.135Z,97885.38
2018-01-18T11:48:56.561Z,97869.53
2018-01-18T11:51:24.927Z,97854.55
2018-01-18T11:53:53.424Z,97863.81
2018-01-18T11:56:21.788Z,97835.34
2018-01-18T11:58:50.150Z,97816.45
2018-01-18T12:01:18.514Z,97820.83
2018-01-18T12:03:46.885Z,97821.59
2018-01-18T12:06:15.264Z,97814.32
2018-01-18T12:08:44.400Z,97789.37
2018-01-18T12:11:12.762Z,97772.68
2018-01-18T12:13:41.147Z,97766.56
2018-01-18T12:16:09.520Z,97761.92
2018-01-18T12:18:37.907Z,97735.03
2018-01-18T12:21:06.261Z,97742.41
2018-01-18T12:23:34.616Z,97719.34
2018-01-18T12:26:03.148Z,97717.98
2018-01-18T12:28:31.559Z,97703.80
2018-01-18T12:31:00.345Z,97704.19
2018-01-18T12:33:29.093Z,97692.70
2018-01-18T12:35:57.465Z,97685.82
2018-01-18T12:38:25.828Z,97672.12
2018-01-18T12:40:54.249Z,97668.02
2018-01-18T12:43:22.727Z,97647.67
2018-01-18T12:45:51.116Z,97644.02
2018-01-18T12:48:19.477Z,97630.13
2018-01-18T12:50:47.850Z,97630.11
2018-01-18T12:53:16.213Z,97598.20
2018-01-18T12:55:44.612Z,97590.50
2018-01-18T12:58:13.001Z,97575.58
2018-01-18T13:00:41.369Z,97569.84
2018-01-18T13:03:09.748Z,97557.91
2018-01-18T13:05:38.185Z,97545.38
2018-01-18T13:08:06.574Z,97546.65
2018-01-18T13:10:34.995Z,97538.77
2018-01-18T13:13:03.379Z,97523.20
2018-01-18T13:15:31.752Z,97530.55
2018-01-18T13:18:00.111Z,97533.28
2018-01-18T13:20:28.493Z,97519.48
2018-01-18T13:22:56.845Z,97522.69
2018-01-18T13:25:25.273Z,97512.67
2018-01-18T13:27:53.637Z,97490.61
2018-01-18T13:30:22.056Z,97494.15
2018-01-18T13:32:50.828Z,97481.16
2018-01-18T13:35:19.281Z,97478.70
2018-01-18T13:37:47.653Z,97460.02
2018-01-18T13:40:16.028Z,97462.95
2018-01-18T13:42:44.428Z,97457.45
2018-01-18T13:45:12.803Z,97446.56
2018-01-18T13:47:41.189Z,97440.20
2018-01-18T13:50:09.547Z,97441.50
2018-01-18T13:52:37.924Z,97436.61
2018-01-18T13:55:06.320Z,97435.41
2018-01-18T13:57:34.702Z,97423.45
2018-01-18T14:00:03.060Z,97417.49
2018-01-18T14:02:31.417Z,97407.19
2018-01-18T14:04:59.798Z,97418.98
2018-01-18T14:07:28.220Z,97421.31
2018-01-18T14:09:56.684Z,97414.97
2018-01-18T14:12:25.068Z,97425.41
2018-01-18T14:14:53.439Z,97413.53
2018-01-18T14:17:21.795Z,97444.59
2018-01-18T14:19:50.155Z,97432.05
2018-01-18T14:22:18.960Z,97426.43
2018-01-18T14:24:47.324Z,97425.52
2018-01-18T14:27:16.072Z,97427.07
2018-01-18T14:29:44.433Z,97423.63
2018-01-18T14:32:12.813Z,97420.98
2018-01-18T14:34:41.187Z,97443.59
2018-01-18T14:37:09.585Z,97435.16
2018-01-18T14:39:37.944Z,97436.05
2018-01-18T14:42:06.300Z,97435.27
2018-01-18T14:44:34.671Z,97438.61
2018-01-18T14:47:03.106Z,97447.58
2018-01-18T14:49:31.485Z,97442.45
2018-01-18T14:51:59.837Z,97454.78
2018-01-18T14:54:28.233Z,97459.67
2018-01-18T14:56:56.615Z,97467.08
2018-01-18T14:59:25.932Z,97460.36
2018-01-18T15:01:54.284Z,97474.55
2018-01-18T15:04:22.662Z,97480.02
2018-01-18T15:06:51.020Z,97485.60
2018-01-18T15:09:19.436Z,97489.39
2018-01-18T15:11:47.803Z,97491.00
2018-01-18T15:14:16.145Z,97507.95
2018-01-18T15:16:44.583Z,97517.94
2018-01-18T15:19:12.944Z,97508.70
2018-01-18T15:21:41.299Z,97510.88
2018-01-18T15:24:09.683Z,97506.38
2018-01-18T15:26:38.082Z,97519.16
2018-01-18T15:29:06.460Z,97513.53
2018-01-18T15:31:34.908Z,97529.59
2018-01-18T15:34:03.268Z,97530.30
2018-01-18T15:36:31.641Z,97532.97
2018-01-18T15:39:00.403Z,97534.73
2018-01-18T15:41:28.755Z,97541.64
2018-01-18T15:43:57.124Z,97541.36
2018-01-18T15:46:25.476Z,97546.56
2018-01-18T15:48:53.848Z,97563.63
2018-01-18T15:51:22.286Z,97556.70
2018-01-18T15:53:50.666Z,97565.80
2018-01-18T15:56:19.025Z,97565.88
2018-01-18T15:58:47.405Z,97568.03
2018-01-18T16:01:15.782Z,97571.83
2018-01-18T16:03:44.128Z,97585.19
2018-01-18T16:06:12.480Z,97603.53
2018-01-18T16:08:41.332Z,97608.93
2018-01-18T16:11:09.709Z,97606.41
2018-01-18T16:13:38.090Z,97611.99
2018-01-18T16:16:06.448Z,97611.42
2018-01-18T16:18:34.804Z,97633.73
2018-01-18T16:21:03.166Z,97636.77
2018-01-18T16:23:31.635Z,97639.27
2018-01-18T16:26:00.091Z,97639.14
2018-01-18T16:28:28.512Z,97644.56
2018-01-18T16:30:57.600Z,97654.73
2018-01-18T16:33:26.376Z,97661.98
2018-01-18T16:35:54.850Z,97654.55
2018-01-18T16:38:23.291Z,97678.95
2018-01-18T16:40:51.664Z,97671.72
2018-01-18T16:43:20.019Z,97663.12
2018-01-18T16:45:56.460Z,97671.05
2018-01-18T16:48:24.845Z,97682.70
2018-01-18T16:50:53.617Z,97686.79
2018-01-18T16:53:21.984Z,97704.55
2018-01-18T16:55:50.354Z,97705.25
2018-01-18T16:58:18.802Z,97703.97
2018-01-18T17:00:47.216Z,97712.16
2018-01-18T17:03:15.576Z,97733.97
2018-01-18T17:05:43.931Z,97738.09
2018-01-18T17:08:12.365Z,97758.32
2018-01-18T17:10:40.738Z,97758.49
2018-01-18T17:13:09.223Z,97761.81
2018-01-18T17:15:37.601Z,97768.69
2018-01-18T17:18:05.978Z,97789.52
2018-01-18T17:20:34.360Z,97813.11
2018-01-18T17:23:02.739Z,97843.53
2018-01-18T17:25:31.120Z,97869.11
2018-01-18T17:27:59.490Z,97883.27
2018-01-18T17:30:27.840Z,97874.44
2018-01-18T17:32:56.199Z,97880.88
2018-01-18T17:35:24.576Z,97906.40
2018-01-18T17:37:52.956Z,97913.80
2018-01-18T17:40:21.319Z,97946.26
2018-01-18T17:42:50.179Z,97967.30
2018-01-18T17:45:18.658Z,97979.36
2018-01-18T17:47:47.024Z,97971.57
2018-01-18T17:50:15.425Z,97974.25
2018-01-18T17:52:43.797Z,98010.39
2018-01-18T17:55:38.010Z,98007.70
2018-01-18T17:58:06.752Z,98038.64
2018-01-18T18:00:35.111Z,98053.66
2018-01-18T18:03:03.468Z,98068.06
2018-01-18T18:05:31.836Z,98045.22
2018-01-18T18:08:00.220Z,98085.44
2018-01-18T18:10:28.577Z,98109.36
2018-01-18T18:12:56.927Z,98117.87
2018-01-18T18:15:26.236Z,98117.95
2018-01-18T18:17:54.710Z,98148.66
2018-01-18T18:20:23.163Z,98150.28
2018-01-18T18:22:51.605Z,98161.64
2018-01-18T18:25:20.356Z,98194.07
2018-01-18T18:27:48.735Z,98190.70
2018-01-18T18:30:17.092Z,98193.69
2018-01-18T18:32:45.494Z,98221.94
2018-01-18T18:35:13.844Z,98253.73
2018-01-18T18:37:42.188Z,98244.69
2018-01-18T18:40:10.968Z,98275.75
2018-01-18T18:42:39.336Z,98295.75
2018-01-18T18:45:07.715Z,98306.61
2018-01-18T18:47:36.129Z,98317.63
2018-01-18T18:50:04.888Z,98343.05
2018-01-18T18:52:33.252Z,98351.15
2018-01-18T18:55:01.621Z,98372.20
2018-01-18T18:57:30.116Z,98383.86
2018-01-18T18:59:58.476Z,98392.91
2018-01-18T19:02:26.844Z,98421.73
2018-01-18T19:04:55.252Z,98403.20
2018-01-18T19:07:23.600Z,98411.09
2018-01-18T19:09:52.042Z,98437.71
2018-01-18T19:12:20.400Z,98455.17
2018-01-18T19:14:49.000Z,98454.59
2018-01-18T19:17:17.849Z,98473.23
2018-01-18T19:19:46.350Z,98499.47
2018-01-18T19:22:14.729Z,98501.66
2018-01-18T19:24:43.096Z,98503.31
2018-01-18T19:27:11.996Z,98520.51
2018-01-18T19:29:40.355Z,98536.46
2018-01-18T19:32:08.699Z,98531.89
2018-01-18T19:34:37.077Z,98540.08
2018-01-18T19:37:05.447Z,98550.28
2018-01-18T19:39:33.807Z,98582.23
2018-01-18T19:42:02.261Z,98596.36
2018-01-18T19:44:30.655Z,98603.33
2018-01-18T19:46:59.057Z,98604.25
2018-01-18T19:49:28.513Z,98612.84
2018-01-18T19:51:56.901Z,98628.67
2018-01-18T19:54:25.263Z,98625.98
2018-01-18T19:56:55.337Z,98646.36
2018-01-18T19:59:24.106Z,98666.80
2018-01-18T20:01:52.468Z,98688.28
2018-01-18T20:04:20.844Z,98699.95
2018-01-18T20:06:49.207Z,98698.28
2018-01-18T20:09:17.760Z,98719.80
2018-01-18T20:11:46.183Z,98719.81
2018-01-18T20:14:14.573Z,98741.34
2018-01-18T20:16:42.937Z,98743.13
2018-01-18T20:19:11.289Z,98751.23
2018-01-18T20:21:39.648Z,98736.22
2018-01-18T20:24:08.081Z,98758.65
2018-01-18T20:26:36.532Z,98781.64
2018-01-18T20:29:05.036Z,98797.19
2018-01-18T20:31:33.417Z,98785.55
2018-01-18T20:34:01.800Z,98803.16
2018-01-18T20:36:30.276Z,98809.15
2018-01-18T20:38:58.626Z,98815.30
2018-01-18T20:41:26.970Z,98829.60
2018-01-18T20:43:55.318Z,98838.98
2018-01-18T20:46:23.678Z,98841.57
2018-01-18T20:48:52.035Z,98861.45
2018-01-18T20:51:20.453Z,98852.38
2018-01-18T20:53:48.864Z,98864.08
2018-01-18T20:56:17.718Z,98870.14
2018-01-18T20:58:46.083Z,98861.06
2018-01-18T21:01:14.461Z,98896.47
2018-01-18T21:03:42.838Z,98910.26
2018-01-18T21:06:11.417Z,98907.58
2018-01-18T21:08:39.803Z,98911.52
2018-01-18T21:11:08.152Z,98921.94
2018-01-18T21:13:36.577Z,98924.44
2018-01-18T21:16:04.926Z,98945.64
2018-01-18T21:18:33.336Z,98943.95
2018-01-18T21:21:01.705Z,98947.32
2018-01-18T21:23:30.057Z,98970.33
2018-01-18T21:25:58.476Z,98970.36
2018-01-18T21:28:26.825Z,98984.17
2018-01-18T21:30:55.228Z,98979.90
2018-01-18T21:33:23.585Z,98994.58
2018-01-18T21:35:51.936Z,98997.60
2018-01-18T21:38:20.304Z,98998.05
2018-01-18T21:40:49.057Z,99012.25
2018-01-18T21:43:17.492Z,99023.47
2018-01-18T21:48:13.975Z,99046.86
2018-01-18T21:50:42.352Z,99053.32
2018-01-18T21:53:10.695Z,99059.73
2018-01-18T21:55:39.041Z,99069.73
2018-01-18T21:58:07.512Z,99065.46
2018-01-18T22:00:35.855Z,99076.25
2018-01-18T22:03:04.257Z,99080.47
2018-01-18T22:05:32.632Z,99085.16
2018-01-18T22:08:00.973Z,99089.55
2018-01-18T22:10:29.344Z,99094.40
2018-01-18T22:12:57.784Z,99107.86
2018-01-18T22:15:26.251Z,99109.12
2018-01-18T22:17:54.641Z,99107.86
2018-01-18T22:20:23.092Z,99121.70
2018-01-18T22:22:51.458Z,99124.67
2018-01-18T22:25:19.820Z,99128.59
2018-01-18T22:27:48.322Z,99141.13
2018-01-18T22:30:16.731Z,99145.85
2018-01-18T22:32:45.092Z,99149.75
2018-01-18T22:35:13.453Z,99146.25
2018-01-18T22:37:41.939Z,99146.67
2018-01-18T22:40:10.319Z,99147.11
2018-01-18T22:42:38.665Z,99161.88
2018-01-18T22:45:07.409Z,99157.11
2018-01-18T22:47:35.814Z,99149.28
2018-01-18T22:50:04.188Z,99157.94
2018-01-18T22:52:32.638Z,99158.45
2018-01-18T22:55:00.988Z,99163.22
2018-01-18T22:57:29.515Z,99162.37
2018-01-18T22:59:57.865Z,99165.77
2018-01-18T23:02:26.226Z,99160.53
2018-01-18T23:04:54.582Z,99164.47
2018-01-18T23:07:23.339Z,99155.37
2018-01-18T23:09:51.719Z,99160.63
2018-01-18T23:12:20.200Z,99155.87
2018-01-18T23:14:55.197Z,99163.20
2018-01-18T23:17:23.571Z,99167.55
2018-01-18T23:19:51.922Z,99169.29
2018-01-18T23:22:20.744Z,99171.44
2018-01-18T23:24:49.116Z,99169.63
2018-01-18T23:27:17.499Z,99179.23
2018-01-18T23:29:45.877Z,99176.22
2018-01-18T23:32:14.353Z,99179.64
2018-01-18T23:34:42.709Z,99183.98
2018-01-18T23:37:11.468Z,99200.41
2018-01-18T23:39:39.961Z,99188.31
2018-01-18T23:42:08.327Z,99197.86
2018-01-18T23:44:36.691Z,99199.58
2018-01-18T23:47:05.594Z,99215.59
2018-01-18T23:49:33.948Z,99210.81
2018-01-18T23:52:02.308Z,99213.81
2018-01-18T23:54:30.742Z,99214.72
2018-01-18T23:56:59.089Z,99221.61
2018-01-18T23:59:27.460Z,99225.52
